Time;durP1;ratioP1;P1;durP2;ratioP2;P2;SDS_P1;SDS_P2;PMS_P1;PMS_P2;Temp;Humidity;BMP_temperature;BMP_pressure;BME280_temperature;BME280_humidity;BME280_pressure;Samples;Min_cycle;Max_cycle;Signal;HPM_P1;HPM_P2
2023/08/19 00:01:15;;;;;;;21.77;19.27;;;21.10;99.90;;;;;;5079219;28;20044;-80
2023/08/19 00:03:41;;;;;;;23.85;20.75;;;21.10;99.90;;;;;;5079727;28;20407;-78
2023/08/19 00:06:09;;;;;;;23.10;19.95;;;21.00;99.90;;;;;;5078952;28;20120;-78
2023/08/19 00:08:36;;;;;;;22.17;19.85;;;21.00;99.90;;;;;;5079491;28;20036;-79
2023/08/19 00:11:02;;;;;;;24.27;19.10;;;21.00;99.90;;;;;;5079874;28;20440;-79
2023/08/19 00:13:28;;;;;;;22.70;19.95;;;21.00;99.90;;;;;;5079301;28;20103;-78
2023/08/19 00:15:53;;;;;;;23.25;20.02;;;21.00;99.90;;;;;;5080184;28;20489;-78
2023/08/19 00:18:19;;;;;;;22.33;19.83;;;21.00;99.90;;;;;;5079700;28;20032;-79
2023/08/19 00:20:44;;;;;;;23.67;20.25;;;20.90;99.90;;;;;;5079678;28;20169;-78
2023/08/19 00:23:10;;;;;;;20.90;18.65;;;20.90;99.90;;;;;;5079746;28;20040;-78
2023/08/19 00:25:36;;;;;;;23.70;19.10;;;20.90;99.90;;;;;;5079505;28;20036;-78
2023/08/19 00:28:04;;;;;;;24.40;19.73;;;20.90;99.90;;;;;;5079391;28;20425;-78
2023/08/19 00:30:29;;;;;;;21.92;19.48;;;20.90;99.90;;;;;;5079415;28;20085;-78
2023/08/19 00:32:55;;;;;;;22.63;19.83;;;20.90;99.90;;;;;;5078370;28;20039;-81
2023/08/19 00:35:20;;;;;;;23.20;19.20;;;20.90;99.90;;;;;;5062486;28;20032;-78
2023/08/19 00:37:46;;;;;;;20.38;18.27;;;20.80;99.90;;;;;;5061858;28;20040;-80
2023/08/19 00:40:15;;;;;;;20.38;18.38;;;20.90;99.90;;;;;;5061444;28;20479;-80
2023/08/19 00:42:41;;;;;;;23.30;19.35;;;20.80;99.90;;;;;;5079390;28;20047;-79
2023/08/19 00:45:07;;;;;;;27.98;18.80;;;20.80;99.90;;;;;;5077921;28;20043;-80
2023/08/19 00:47:34;;;;;;;22.83;19.15;;;20.80;99.90;;;;;;5062475;28;20403;-81
2023/08/19 00:50:00;;;;;;;19.38;17.40;;;20.80;99.90;;;;;;5079302;28;20085;-80
2023/08/19 00:52:25;;;;;;;21.30;18.63;;;20.80;99.90;;;;;;5078530;28;20024;-80
2023/08/19 00:54:51;;;;;;;20.67;18.48;;;20.70;99.90;;;;;;5078492;28;20040;-81
2023/08/19 00:57:17;;;;;;;22.60;18.35;;;20.70;99.90;;;;;;5078330;28;20072;-81
2023/08/19 00:59:42;;;;;;;19.67;17.77;;;20.70;99.90;;;;;;5078932;28;20046;-80
2023/08/19 01:02:08;;;;;;;19.98;17.88;;;20.70;99.90;;;;;;5075849;28;20062;-80
2023/08/19 01:04:34;;;;;;;19.38;17.17;;;20.70;99.90;;;;;;5076112;28;20032;-80
2023/08/19 01:07:14;;;;;;;23.35;19.30;;;20.60;99.90;;;;;;5075403;28;20048;-81
2023/08/19 01:09:48;;;;;;;22.60;18.95;;;20.70;99.90;;;;;;5068923;28;20039;-80
2023/08/19 01:12:21;;;;;;;20.25;18.25;;;20.70;99.90;;;;;;5075409;28;20055;-80
2023/08/19 01:15:12;;;;;;;20.90;18.70;;;20.60;99.90;;;;;;5076154;28;20043;-81
2023/08/19 01:17:39;;;;;;;21.08;18.88;;;20.60;99.90;;;;;;5074081;28;20111;-80
2023/08/19 01:20:08;;;;;;;20.63;18.63;;;20.70;99.90;;;;;;5074147;28;20442;-81
2023/08/19 01:22:49;;;;;;;20.85;18.60;;;20.60;99.90;;;;;;5058262;28;20036;-81
2023/08/19 01:25:16;;;;;;;20.55;18.50;;;20.60;99.90;;;;;;5056914;28;20109;-81
2023/08/19 01:27:42;;;;;;;20.63;18.52;;;20.60;99.90;;;;;;5058588;28;20036;-81
2023/08/19 01:30:08;;;;;;;21.13;18.92;;;20.60;99.90;;;;;;5074981;28;20127;-81
2023/08/19 01:32:34;;;;;;;21.95;19.52;;;20.70;99.90;;;;;;5075102;28;20454;-81
2023/08/19 01:35:00;;;;;;;21.30;19.15;;;20.60;99.90;;;;;;5075370;28;20032;-80
2023/08/19 01:37:46;;;;;;;22.30;19.52;;;20.70;99.90;;;;;;5074135;28;20035;-81
2023/08/19 01:40:15;;;;;;;21.33;19.20;;;20.60;99.90;;;;;;5072982;28;20455;-80
2023/08/19 01:42:42;;;;;;;21.40;18.88;;;20.60;99.90;;;;;;5074733;28;20043;-80
2023/08/19 01:45:09;;;;;;;21.88;19.42;;;20.60;99.90;;;;;;5075415;28;20051;-81
2023/08/19 01:47:38;;;;;;;21.23;19.05;;;20.60;99.90;;;;;;5074845;28;20036;-81
2023/08/19 01:50:07;;;;;;;21.70;19.40;;;20.60;99.90;;;;;;5074039;28;20120;-82
2023/08/19 01:52:33;;;;;;;20.35;18.25;;;20.60;99.90;;;;;;5077199;28;20494;-80
2023/08/19 01:54:59;;;;;;;21.73;19.05;;;20.60;99.90;;;;;;5071369;28;20491;-80
2023/08/19 01:57:26;;;;;;;20.17;17.98;;;20.50;99.90;;;;;;5076409;28;20040;-80
2023/08/19 01:59:52;;;;;;;19.60;17.52;;;20.50;99.90;;;;;;5074446;28;20054;-81
2023/08/19 02:02:18;;;;;;;20.73;18.60;;;20.50;99.90;;;;;;5058397;28;20047;-81
2023/08/19 02:04:43;;;;;;;20.50;18.27;;;20.50;99.90;;;;;;5058991;28;20036;-80
2023/08/19 02:07:09;;;;;;;21.40;18.92;;;20.50;99.90;;;;;;5061882;28;20040;-81
2023/08/19 02:09:34;;;;;;;20.38;18.20;;;20.50;99.90;;;;;;5064176;28;20365;-80
2023/08/19 02:12:00;;;;;;;20.67;18.55;;;20.50;99.90;;;;;;5054170;28;20119;-80
2023/08/19 02:14:25;;;;;;;21.98;18.90;;;20.50;99.90;;;;;;5071128;28;20120;-80
2023/08/19 02:16:51;;;;;;;19.80;17.77;;;20.50;99.90;;;;;;5065392;28;20052;-81
2023/08/19 02:19:17;;;;;;;21.95;19.60;;;20.50;99.90;;;;;;5066307;28;20043;-80
2023/08/19 02:21:42;;;;;;;20.27;17.98;;;20.40;99.90;;;;;;5063932;28;20036;-80
2023/08/19 02:24:08;;;;;;;20.38;18.30;;;20.40;99.90;;;;;;5075008;28;20295;-80
2023/08/19 02:26:34;;;;;;;20.90;18.75;;;20.40;99.90;;;;;;5063880;28;20071;-80
2023/08/19 02:28:59;;;;;;;20.00;18.00;;;20.40;99.90;;;;;;5062074;28;20067;-81
2023/08/19 02:31:26;;;;;;;20.42;18.35;;;20.40;99.90;;;;;;5063807;28;20074;-81
2023/08/19 02:33:52;;;;;;;21.45;19.23;;;20.40;99.90;;;;;;5068721;28;20067;-80
2023/08/19 02:36:18;;;;;;;21.48;19.23;;;20.40;99.90;;;;;;5073590;28;20090;-81
2023/08/19 02:38:43;;;;;;;21.85;19.55;;;20.40;99.90;;;;;;5069286;28;20040;-81
2023/08/19 02:41:09;;;;;;;22.48;19.52;;;20.40;99.90;;;;;;5064901;28;20122;-80
2023/08/19 02:43:34;;;;;;;21.60;18.10;;;20.40;99.90;;;;;;5066833;28;20503;-81
2023/08/19 02:46:01;;;;;;;21.60;19.42;;;20.40;99.90;;;;;;5065888;28;20040;-81
2023/08/19 02:48:26;;;;;;;21.15;18.92;;;20.40;99.90;;;;;;5066076;28;20043;-81
2023/08/19 02:50:55;;;;;;;21.13;18.67;;;20.30;99.90;;;;;;5069135;28;20119;-79
2023/08/19 02:53:21;;;;;;;20.80;18.70;;;20.30;99.90;;;;;;5063173;28;20123;-81
2023/08/19 02:55:47;;;;;;;23.50;19.83;;;20.30;99.90;;;;;;5067601;28;20119;-80
2023/08/19 02:58:13;;;;;;;20.15;18.10;;;20.30;99.90;;;;;;5063520;28;20040;-79
2023/08/19 03:00:39;;;;;;;21.55;19.25;;;20.30;99.90;;;;;;5065276;28;20066;-80
2023/08/19 03:03:08;;;;;;;22.15;19.75;;;20.20;99.90;;;;;;5086613;28;20088;-81
2023/08/19 03:05:37;;;;;;;22.05;19.02;;;20.20;99.90;;;;;;5063437;28;20036;-80
2023/08/19 03:08:04;;;;;;;21.50;19.30;;;20.30;99.90;;;;;;5065194;28;20045;-80
2023/08/19 03:10:38;;;;;;;20.83;18.63;;;20.30;99.90;;;;;;5073362;28;20051;-80
2023/08/19 03:13:04;;;;;;;;;;;20.20;99.90;;;;;;5068720;28;20047;-81
2023/08/19 03:15:30;;;;;;;23.52;18.90;;;20.20;99.90;;;;;;5071575;28;20003;-80
2023/08/19 03:17:56;;;;;;;23.08;19.23;;;20.20;99.90;;;;;;5064049;28;20052;-80
2023/08/19 03:20:21;;;;;;;22.50;18.83;;;20.20;99.90;;;;;;5063970;28;20152;-79
2023/08/19 03:22:47;;;;;;;22.60;19.38;;;20.20;99.90;;;;;;5062122;28;20043;-79
2023/08/19 03:25:12;;;;;;;24.23;19.67;;;20.20;99.90;;;;;;5055357;28;20033;-79
2023/08/19 03:27:38;;;;;;;22.23;19.40;;;20.20;99.90;;;;;;5057285;28;20059;-78
2023/08/19 03:30:04;;;;;;;22.27;19.52;;;20.10;99.90;;;;;;5060816;28;20040;-80
2023/08/19 03:32:31;;;;;;;22.67;19.63;;;20.10;99.90;;;;;;5057841;28;20411;-80
2023/08/19 03:34:56;;;;;;;21.48;19.20;;;20.10;99.90;;;;;;5069080;28;20495;-80
2023/08/19 03:37:22;;;;;;;22.52;20.20;;;20.10;99.90;;;;;;5064546;28;20129;-80
2023/08/19 03:39:47;;;;;;;23.00;20.25;;;20.10;99.90;;;;;;5073119;28;20058;-80
2023/08/19 03:42:13;;;;;;;21.95;19.58;;;20.10;99.90;;;;;;5072632;28;20119;-80
2023/08/19 03:44:38;;;;;;;21.58;19.25;;;20.10;99.90;;;;;;5061075;28;20500;-80
2023/08/19 03:47:04;;;;;;;22.08;19.77;;;20.10;99.90;;;;;;5067008;28;20044;-80
2023/08/19 03:49:29;;;;;;;24.42;20.95;;;20.10;99.90;;;;;;5062451;28;20189;-79
2023/08/19 03:51:55;;;;;;;21.77;19.48;;;20.10;99.90;;;;;;5068991;28;20407;-80
2023/08/19 03:54:20;;;;;;;22.77;20.40;;;20.10;99.90;;;;;;5091462;28;20036;-79
2023/08/19 03:56:46;;;;;;;22.15;19.83;;;20.10;99.90;;;;;;5068293;28;20070;-79
2023/08/19 03:59:11;;;;;;;23.55;20.75;;;20.20;99.90;;;;;;5061679;28;20040;-79
2023/08/19 04:01:39;;;;;;;24.38;20.35;;;20.20;99.90;;;;;;5067960;28;20046;-78
2023/08/19 04:04:05;;;;;;;22.17;19.90;;;20.20;99.90;;;;;;5060349;28;20040;-81
2023/08/19 04:06:31;;;;;;;23.17;19.52;;;20.20;99.90;;;;;;5059962;28;20041;-80
2023/08/19 04:08:56;;;;;;;21.55;19.35;;;20.10;99.90;;;;;;5065998;28;20028;-80
2023/08/19 04:11:22;;;;;;;21.67;19.38;;;20.10;99.90;;;;;;5063300;28;20119;-79
2023/08/19 04:13:47;;;;;;;24.42;20.60;;;20.10;99.90;;;;;;5050401;28;20092;-79
2023/08/19 04:16:13;;;;;;;25.02;19.52;;;20.10;99.90;;;;;;5061951;28;20128;-80
2023/08/19 04:18:38;;;;;;;22.77;20.38;;;20.10;99.90;;;;;;5061352;28;20170;-78
2023/08/19 04:21:05;;;;;;;22.25;19.95;;;20.10;99.90;;;;;;5068566;28;20044;-79
2023/08/19 04:23:34;;;;;;;22.13;19.77;;;20.10;99.90;;;;;;5068249;28;20119;-80
2023/08/19 04:26:00;;;;;;;21.00;18.70;;;20.10;99.90;;;;;;5068491;28;20044;-80
2023/08/19 04:28:26;;;;;;;22.25;19.58;;;20.10;99.90;;;;;;5063966;28;20407;-80
2023/08/19 04:31:12;;;;;;;21.40;19.20;;;20.10;99.90;;;;;;5071013;28;20047;-80
2023/08/19 04:33:38;;;;;;;20.95;18.73;;;20.10;99.90;;;;;;5062880;28;20048;-80
2023/08/19 04:36:04;;;;;;;20.05;17.95;;;20.10;99.90;;;;;;5056211;28;20130;-80
2023/08/19 04:38:30;;;;;;;19.77;17.65;;;20.10;99.90;;;;;;5056640;28;20124;-80
2023/08/19 04:40:56;;;;;;;20.30;18.23;;;20.20;99.90;;;;;;5072287;28;20503;-80
2023/08/19 04:43:22;;;;;;;19.77;17.67;;;20.20;99.90;;;;;;5069343;28;20536;-80
2023/08/19 04:45:48;;;;;;;21.58;19.15;;;20.20;99.90;;;;;;5073302;28;20036;-81
2023/08/19 04:48:14;;;;;;;19.23;17.23;;;20.20;99.90;;;;;;5049397;28;20486;-82
2023/08/19 04:50:39;;;;;;;19.98;17.45;;;20.20;99.90;;;;;;5071636;28;20036;-80
2023/08/19 04:53:05;;;;;;;20.73;18.58;;;20.20;99.90;;;;;;5070334;28;20050;-80
2023/08/19 04:55:30;;;;;;;20.50;17.35;;;20.30;99.90;;;;;;5071673;28;20123;-80
2023/08/19 04:57:56;;;;;;;21.02;17.40;;;20.30;99.90;;;;;;5071188;28;20036;-81
2023/08/19 05:00:22;;;;;;;19.60;17.50;;;20.40;99.90;;;;;;5073994;28;20119;-80
2023/08/19 05:02:49;;;;;;;20.77;17.08;;;20.40;99.90;;;;;;5065957;28;20079;-81
2023/08/19 05:05:15;;;;;;;18.33;16.40;;;20.40;99.90;;;;;;5069187;28;20040;-80
2023/08/19 05:07:40;;;;;;;20.45;17.13;;;20.50;99.90;;;;;;5071537;28;20093;-81
2023/08/19 05:10:06;;;;;;;19.92;16.50;;;20.50;99.90;;;;;;5052776;28;20039;-80
2023/08/19 05:12:32;;;;;;;17.98;16.17;;;20.60;99.90;;;;;;5066494;28;20074;-80
2023/08/19 05:14:57;;;;;;;20.02;16.58;;;20.60;99.90;;;;;;5071023;28;20070;-81
2023/08/19 05:17:23;;;;;;;18.08;16.15;;;20.70;99.90;;;;;;5072847;28;20068;-80
2023/08/19 05:19:48;;;;;;;17.55;15.75;;;20.70;99.90;;;;;;5056839;28;20075;-80
2023/08/19 05:22:14;;;;;;;17.25;15.45;;;20.70;99.90;;;;;;5067636;28;20040;-81
2023/08/19 05:24:39;;;;;;;17.27;14.93;;;20.70;99.90;;;;;;5073630;28;20048;-81
2023/08/19 05:27:05;;;;;;;17.67;14.70;;;20.70;99.90;;;;;;5068380;28;20484;-80
2023/08/19 05:29:31;;;;;;;17.00;15.10;;;20.70;99.90;;;;;;5072162;28;20024;-81
2023/08/19 05:31:57;;;;;;;17.20;13.93;;;20.70;99.90;;;;;;5076322;28;20032;-81
2023/08/19 05:34:24;;;;;;;17.08;15.13;;;20.70;99.90;;;;;;5072574;28;20040;-81
2023/08/19 05:36:50;;;;;;;16.95;14.73;;;20.80;99.90;;;;;;5077568;28;20047;-81
2023/08/19 05:39:17;;;;;;;16.98;14.95;;;20.80;99.90;;;;;;5073101;28;20044;-80
2023/08/19 05:41:43;;;;;;;17.48;15.00;;;20.70;99.90;;;;;;5069411;28;20513;-81
2023/08/19 05:44:08;;;;;;;17.80;14.52;;;20.80;99.90;;;;;;5077916;28;20525;-82
2023/08/19 05:46:34;;;;;;;15.40;13.90;;;20.80;99.90;;;;;;5071914;28;20110;-81
2023/08/19 05:49:00;;;;;;;17.00;13.75;;;20.90;99.90;;;;;;5055706;28;20122;-81
2023/08/19 05:51:26;;;;;;;14.80;12.80;;;20.90;99.90;;;;;;5070218;28;20036;-81
2023/08/19 05:53:58;;;;;;;15.43;13.32;;;21.00;99.90;;;;;;5077907;28;20078;-81
2023/08/19 05:56:24;;;;;;;15.75;13.77;;;21.00;99.90;;;;;;5076451;28;20122;-80
2023/08/19 05:58:49;;;;;;;16.13;13.40;;;21.10;99.90;;;;;;5077745;28;20051;-80
2023/08/19 06:01:15;;;;;;;16.10;13.13;;;21.10;99.90;;;;;;5082373;28;20031;-81
2023/08/19 06:03:41;;;;;;;16.70;13.27;;;21.10;99.90;;;;;;5080940;28;20063;-80
2023/08/19 06:06:06;;;;;;;16.60;13.18;;;21.20;99.90;;;;;;5079019;28;20412;-81
2023/08/19 06:08:33;;;;;;;14.55;13.00;;;21.20;99.90;;;;;;5076485;28;20494;-80
2023/08/19 06:11:05;;;;;;;16.25;12.73;;;21.20;99.90;;;;;;5076448;28;20055;-81
2023/08/19 06:13:31;;;;;;;14.75;12.52;;;21.20;99.90;;;;;;5076905;28;20044;-80
2023/08/19 06:15:57;;;;;;;13.45;12.05;;;21.30;99.90;;;;;;5075685;28;20519;-80
2023/08/19 06:18:22;;;;;;;14.25;12.20;;;21.30;99.90;;;;;;5058804;28;20046;-80
2023/08/19 06:20:50;;;;;;;14.10;11.82;;;21.40;99.90;;;;;;5076525;28;20119;-81
2023/08/19 06:23:16;;;;;;;14.73;12.20;;;21.50;99.90;;;;;;5073486;28;20097;-82
2023/08/19 06:25:42;;;;;;;12.68;11.35;;;21.50;99.90;;;;;;5073796;28;20032;-81
2023/08/19 06:28:07;;;;;;;13.40;11.85;;;21.50;99.90;;;;;;5073410;28;20081;-78
2023/08/19 06:30:34;;;;;;;13.27;11.40;;;21.60;99.90;;;;;;5072668;28;20089;-82
2023/08/19 06:32:59;;;;;;;14.07;11.68;;;21.60;99.90;;;;;;5074390;28;20039;-81
2023/08/19 06:35:25;;;;;;;14.00;11.07;;;21.60;99.90;;;;;;5073200;28;20497;-81
2023/08/19 06:37:54;;;;;;;12.07;10.85;;;21.70;99.90;;;;;;5074778;28;20044;-81
2023/08/19 06:40:21;;;;;;;13.27;11.18;;;21.70;99.90;;;;;;5076363;28;20043;-82
2023/08/19 06:42:49;;;;;;;13.10;10.23;;;21.70;99.90;;;;;;5071619;28;20052;-81
2023/08/19 06:45:16;;;;;;;15.50;11.45;;;21.70;99.90;;;;;;5073969;28;20052;-80
2023/08/19 06:47:42;;;;;;;12.30;10.13;;;21.60;99.90;;;;;;5077110;28;20142;-80
2023/08/19 06:50:09;;;;;;;11.88;10.43;;;21.60;99.90;;;;;;5077629;28;20036;-80
2023/08/19 06:52:35;;;;;;;13.77;11.52;;;21.60;99.90;;;;;;5078047;28;20051;-80
2023/08/19 06:55:01;;;;;;;11.60;10.50;;;21.50;99.90;;;;;;5077520;28;20322;-80
2023/08/19 06:57:36;;;;;;;10.98;9.57;;;21.50;99.90;;;;;;5074916;28;20048;-81
2023/08/19 07:00:06;;;;;;;12.48;10.38;;;21.50;99.90;;;;;;5078281;28;20087;-81
2023/08/19 07:02:36;;;;;;;13.00;10.23;;;21.50;99.90;;;;;;5081906;28;20040;-81
2023/08/19 07:05:05;;;;;;;12.73;10.13;;;21.50;99.90;;;;;;5057714;28;20043;-82
2023/08/19 07:07:32;;;;;;;11.82;10.02;;;21.50;99.90;;;;;;5073595;28;20139;-81
2023/08/19 07:09:57;;;;;;;12.25;10.05;;;21.50;99.90;;;;;;5073987;28;20040;-83
2023/08/19 07:12:23;;;;;;;12.77;10.00;;;21.50;99.90;;;;;;5073438;28;20456;-81
2023/08/19 07:14:49;;;;;;;12.25;10.05;;;21.60;99.90;;;;;;5073809;28;20032;-81
2023/08/19 07:17:20;;;;;;;12.40;9.85;;;21.60;99.90;;;;;;5056610;28;20036;-81
2023/08/19 07:19:47;;;;;;;10.65;9.25;;;21.60;99.90;;;;;;5057192;28;20040;-81
2023/08/19 07:22:14;;;;;;;10.52;9.10;;;21.70;99.90;;;;;;5073250;28;20043;-81
2023/08/19 07:24:42;;;;;;;11.35;9.63;;;21.80;99.90;;;;;;5073319;28;20055;-82
2023/08/19 07:27:10;;;;;;;10.02;8.50;;;21.80;99.90;;;;;;5072898;28;20071;-81
2023/08/19 07:29:37;;;;;;;11.10;9.15;;;21.90;99.90;;;;;;5072003;28;20097;-82
2023/08/19 07:32:04;;;;;;;9.98;8.93;;;21.90;99.90;;;;;;5072838;28;20042;-82
2023/08/19 07:34:29;;;;;;;11.13;9.43;;;22.00;99.90;;;;;;5070773;28;20087;-81
2023/08/19 07:36:55;;;;;;;10.35;9.15;;;22.00;99.90;;;;;;5070985;28;20469;-81
2023/08/19 07:39:22;;;;;;;10.93;8.63;;;22.10;99.90;;;;;;5070865;28;20072;-81
2023/08/19 07:41:48;;;;;;;10.85;8.60;;;22.20;99.90;;;;;;5054790;28;20036;-83
2023/08/19 07:44:14;;;;;;;11.90;8.55;;;22.20;99.90;;;;;;5069783;28;20085;-82
2023/08/19 07:46:39;;;;;;;12.88;9.30;;;22.20;99.90;;;;;;5071742;28;20032;-82
2023/08/19 07:49:05;;;;;;;11.65;8.23;;;22.30;99.90;;;;;;5071017;28;20038;-82
2023/08/19 07:51:31;;;;;;;10.38;8.55;;;22.40;99.90;;;;;;5073988;28;20032;-82
2023/08/19 07:53:56;;;;;;;9.82;8.20;;;22.40;99.90;;;;;;5054252;28;20040;-81
2023/08/19 07:56:22;;;;;;;11.07;8.63;;;22.40;99.90;;;;;;5074498;28;20407;-82
2023/08/19 07:58:47;;;;;;;10.27;8.10;;;22.50;99.90;;;;;;5088651;28;20039;-82
2023/08/19 08:01:13;;;;;;;10.32;8.40;;;22.50;99.90;;;;;;5073172;28;20047;-82
2023/08/19 08:03:39;;;;;;;10.75;8.20;;;22.50;99.90;;;;;;5072163;28;20044;-81
2023/08/19 08:06:05;;;;;;;9.90;7.68;;;22.50;99.90;;;;;;5075016;28;20574;-83
2023/08/19 08:08:30;;;;;;;11.05;8.60;;;22.60;99.90;;;;;;5085991;28;20691;-83
2023/08/19 08:10:56;;;;;;;8.43;7.60;;;22.60;99.90;;;;;;5072994;28;20051;-83
2023/08/19 08:13:22;;;;;;;10.20;7.85;;;22.70;99.90;;;;;;5075817;28;20395;-82
2023/08/19 08:15:48;;;;;;;9.40;7.75;;;22.80;99.90;;;;;;5079503;28;20044;-82
2023/08/19 08:18:14;;;;;;;8.80;7.90;;;22.80;99.90;;;;;;5077866;28;20495;-81
2023/08/19 08:20:39;;;;;;;12.00;7.70;;;22.90;99.90;;;;;;5077492;28;20097;-82
2023/08/19 08:23:05;;;;;;;8.23;7.22;;;22.90;99.90;;;;;;5077548;28;20479;-83
2023/08/19 08:25:31;;;;;;;9.48;6.88;;;22.90;99.90;;;;;;5062577;28;20503;-82
2023/08/19 08:27:56;;;;;;;7.15;6.43;;;23.00;99.90;;;;;;5062925;28;20123;-82
2023/08/19 08:30:22;;;;;;;9.40;6.97;;;23.00;99.90;;;;;;5076628;28;20514;-82
2023/08/19 08:32:49;;;;;;;8.73;7.10;;;23.10;99.90;;;;;;5080038;28;20097;-83
2023/08/19 08:35:14;;;;;;;7.32;6.63;;;23.10;99.90;;;;;;5075894;28;20063;-81
2023/08/19 08:37:40;;;;;;;7.90;6.68;;;23.20;99.90;;;;;;5081147;28;20040;-82
2023/08/19 08:40:07;;;;;;;9.82;6.70;;;23.30;99.90;;;;;;5066863;28;20048;-81
2023/08/19 08:42:32;;;;;;;7.25;6.40;;;23.40;99.90;;;;;;5074974;28;20111;-80
2023/08/19 08:44:58;;;;;;;8.00;6.93;;;23.40;99.90;;;;;;5070708;28;20108;-81
2023/08/19 08:47:26;;;;;;;8.77;6.80;;;23.50;99.90;;;;;;5072654;28;20040;-80
2023/08/19 08:49:53;;;;;;;9.65;6.57;;;23.60;99.90;;;;;;5078885;28;20123;-83
2023/08/19 08:52:20;;;;;;;8.13;6.45;;;23.70;99.90;;;;;;5073566;28;20032;-83
2023/08/19 08:54:47;;;;;;;8.57;6.57;;;23.80;99.90;;;;;;5062432;28;20437;-81
2023/08/19 08:57:16;;;;;;;10.07;6.13;;;24.00;99.90;;;;;;5078317;28;20127;-82
2023/08/19 08:59:42;;;;;;;7.20;6.07;;;24.10;99.90;;;;;;5079485;28;20051;-83
2023/08/19 09:02:10;;;;;;;8.18;5.90;;;24.40;99.90;;;;;;5078732;28;20040;-82
2023/08/19 09:04:38;;;;;;;9.75;5.90;;;24.80;99.90;;;;;;5077320;28;20487;-82
2023/08/19 09:07:11;;;;;;;7.20;5.90;;;24.90;99.90;;;;;;5078435;28;20145;-83
2023/08/19 09:09:40;;;;;;;7.72;6.88;;;25.00;99.90;;;;;;5070673;28;20063;-83
2023/08/19 09:12:11;;;;;;;8.98;6.10;;;25.10;99.90;;;;;;5077596;28;20032;-82
2023/08/19 09:14:45;;;;;;;9.18;6.32;;;25.30;99.90;;;;;;5075400;28;20040;-81
2023/08/19 09:17:14;;;;;;;;;;;25.40;99.90;;;;;;5077006;28;20437;-80
2023/08/19 09:19:40;;;;;;;7.95;6.00;;;25.60;99.90;;;;;;5059727;28;19920;-82
2023/08/19 09:22:15;;;;;;;8.30;5.97;;;25.70;99.90;;;;;;5072629;28;20121;-82
2023/08/19 09:24:41;;;;;;;9.40;5.93;;;25.70;99.90;;;;;;5075802;28;20042;-82
2023/08/19 09:27:06;;;;;;;9.05;5.88;;;25.70;99.90;;;;;;5075630;28;20039;-82
2023/08/19 09:29:33;;;;;;;10.52;6.25;;;25.70;99.90;;;;;;5076134;28;20495;-83
2023/08/19 09:31:59;;;;;;;10.75;6.55;;;25.60;99.90;;;;;;5073087;28;20047;-82
2023/08/19 09:34:25;;;;;;;7.00;6.28;;;25.60;99.90;;;;;;5056652;28;20056;-82
2023/08/19 09:36:57;;;;;;;9.13;6.15;;;25.60;99.90;;;;;;5073080;28;20051;-82
2023/08/19 09:39:25;;;;;;;8.85;5.68;;;25.60;99.90;;;;;;5057091;28;20040;-82
2023/08/19 09:41:57;;;;;;;10.23;6.15;;;25.70;99.90;;;;;;5074983;28;20098;-82
2023/08/19 09:44:26;;;;;;;8.07;5.57;;;25.70;99.90;;;;;;5075434;28;20047;-82
2023/08/19 09:46:54;;;;;;;8.52;6.10;;;25.80;99.90;;;;;;5076004;28;20032;-83
2023/08/19 09:49:21;;;;;;;10.68;5.72;;;25.90;99.90;;;;;;5088996;28;20032;-83
2023/08/19 09:51:53;;;;;;;9.90;6.03;;;26.20;99.90;;;;;;5079914;28;20109;-81
2023/08/19 09:54:19;;;;;;;10.75;6.03;;;26.30;99.90;;;;;;5068030;28;20116;-82
2023/08/19 09:56:56;;;;;;;8.55;5.32;;;26.40;99.90;;;;;;5073373;28;20503;-84
2023/08/19 09:59:26;;;;;;;11.20;5.90;;;26.30;99.90;;;;;;5072329;28;20093;-81
2023/08/19 10:01:52;;;;;;;9.23;5.53;;;26.20;99.90;;;;;;5064170;28;20040;-82
2023/08/19 10:04:19;;;;;;;8.45;5.65;;;26.20;99.90;;;;;;5074879;28;20122;-82
2023/08/19 10:06:51;;;;;;;7.57;5.82;;;26.00;99.90;;;;;;5071524;28;20044;-82
2023/08/19 10:09:22;;;;;;;5.80;5.03;;;26.10;99.90;;;;;;5078153;28;20059;-82
2023/08/19 10:11:52;;;;;;;6.72;5.32;;;25.90;99.90;;;;;;5070082;28;20122;-82
2023/08/19 10:14:25;;;;;;;9.70;5.85;;;25.80;99.90;;;;;;5063475;28;20024;-82
2023/08/19 10:16:52;;;;;;;7.78;6.30;;;25.70;99.90;;;;;;5071047;28;20503;-84
2023/08/19 10:19:20;;;;;;;8.60;5.78;;;25.60;99.90;;;;;;5081026;28;20059;-82
2023/08/19 10:21:49;;;;;;;8.68;5.80;;;25.40;99.90;;;;;;5083625;28;20043;-81
2023/08/19 10:24:21;;;;;;;9.38;6.00;;;25.30;99.90;;;;;;5056533;28;20046;-81
2023/08/19 10:26:50;;;;;;;8.15;5.82;;;25.20;99.90;;;;;;5076173;28;20123;-82
2023/08/19 10:29:16;;;;;;;8.57;5.97;;;25.10;99.90;;;;;;5070073;28;20117;-81
2023/08/19 10:31:42;;;;;;;13.23;6.57;;;25.10;99.90;;;;;;5078057;28;20503;-82
2023/08/19 10:34:26;;;;;;;12.65;6.65;;;25.00;99.90;;;;;;5075280;28;20051;-80
2023/08/19 10:37:06;;;;;;;10.00;6.65;;;25.00;99.90;;;;;;5069115;28;20040;-80
2023/08/19 10:39:31;;;;;;;8.20;6.95;;;25.10;99.90;;;;;;5076854;28;20051;-81
2023/08/19 10:41:57;;;;;;;11.15;7.07;;;25.30;99.90;;;;;;5074649;28;20039;-81
2023/08/19 10:44:31;;;;;;;9.38;6.75;;;25.40;99.90;;;;;;5075234;28;20518;-81
2023/08/19 10:47:13;;;;;;;10.88;6.38;;;25.50;99.90;;;;;;5057680;28;20500;-81
2023/08/19 10:49:39;;;;;;;7.45;6.10;;;25.60;99.90;;;;;;5074271;28;20036;-82
2023/08/19 10:52:05;;;;;;;10.25;6.82;;;25.70;99.90;;;;;;5074732;28;20039;-81
2023/08/19 10:54:39;;;;;;;9.32;7.60;;;25.70;99.90;;;;;;5073052;28;20036;-81
2023/08/19 10:57:22;;;;;;;8.85;7.13;;;25.70;99.90;;;;;;5077412;28;20040;-81
2023/08/19 10:59:53;;;;;;;9.35;7.15;;;25.70;99.90;;;;;;5093105;28;20040;-81
2023/08/19 11:02:18;;;;;;;12.13;7.43;;;25.60;99.90;;;;;;5074115;28;20052;-81
2023/08/19 11:04:47;;;;;;;9.80;7.40;;;25.50;99.90;;;;;;5074671;28;20050;-81
2023/08/19 11:07:13;;;;;;;11.23;7.72;;;25.50;99.90;;;;;;5073871;28;20032;-80
2023/08/19 11:09:41;;;;;;;9.32;7.13;;;25.40;99.90;;;;;;5068621;28;20081;-81
2023/08/19 11:12:07;;;;;;;10.82;8.15;;;25.40;99.90;;;;;;5075646;28;20086;-81
2023/08/19 11:14:32;;;;;;;10.50;7.65;;;25.40;99.90;;;;;;5075669;28;20044;-81
2023/08/19 11:16:58;;;;;;;11.77;8.40;;;25.50;99.90;;;;;;5074587;28;20039;-82
2023/08/19 11:19:24;;;;;;;11.32;8.95;;;25.70;99.90;;;;;;5075158;28;20074;-82
2023/08/19 11:21:50;;;;;;;12.05;8.80;;;26.00;99.90;;;;;;5075924;28;20081;-81
2023/08/19 11:24:16;;;;;;;12.63;9.25;;;26.30;99.90;;;;;;5076455;28;20036;-83
2023/08/19 11:26:47;;;;;;;12.02;8.15;;;26.50;99.90;;;;;;5075555;28;20158;-81
2023/08/19 11:29:13;;;;;;;12.93;8.85;;;26.80;99.90;;;;;;5076202;28;20039;-83
2023/08/19 11:31:40;;;;;;;13.70;9.45;;;27.10;99.90;;;;;;5075989;28;20040;-82
2023/08/19 11:34:11;;;;;;;16.27;8.70;;;27.20;99.90;;;;;;5074806;28;20047;-81
2023/08/19 11:36:37;;;;;;;10.70;8.45;;;27.20;99.90;;;;;;5074716;28;20122;-82
2023/08/19 11:39:04;;;;;;;11.75;8.73;;;27.40;99.90;;;;;;5076057;28;20558;-82
2023/08/19 11:41:30;;;;;;;12.65;9.60;;;27.60;99.90;;;;;;5075121;28;20141;-82
2023/08/19 11:43:57;;;;;;;12.40;9.77;;;27.60;99.90;;;;;;5075600;28;20522;-82
2023/08/19 11:46:30;;;;;;;13.13;10.38;;;27.60;99.90;;;;;;5075061;28;20036;-81
2023/08/19 11:49:11;;;;;;;13.43;10.68;;;27.70;99.90;;;;;;5075468;28;20440;-81
2023/08/19 11:51:40;;;;;;;13.80;9.55;;;27.70;99.90;;;;;;5075978;28;20085;-81
2023/08/19 11:54:08;;;;;;;12.70;9.77;;;27.70;99.90;;;;;;5075563;28;20495;-81
2023/08/19 11:57:06;;;;;;;12.75;11.18;;;27.70;99.90;;;;;;5074668;28;20677;-81
2023/08/19 11:59:33;;;;;;;14.60;12.95;;;27.80;99.90;;;;;;5063322;28;20063;-81
2023/08/19 12:02:02;;;;;;;14.60;12.88;;;27.90;99.90;;;;;;5058718;28;20134;-81
2023/08/19 12:04:28;;;;;;;18.52;15.10;;;27.90;99.90;;;;;;5074115;28;20130;-80
2023/08/19 12:06:53;;;;;;;18.50;16.13;;;27.80;99.90;;;;;;5057403;28;20157;-81
2023/08/19 12:09:30;;;;;;;19.70;15.90;;;27.60;99.90;;;;;;5057955;28;20044;-81
2023/08/19 12:12:01;;;;;;;18.13;15.35;;;27.50;99.90;;;;;;5074180;28;20096;-81
2023/08/19 12:14:27;;;;;;;17.77;15.80;;;27.40;99.90;;;;;;5072220;28;20063;-80
2023/08/19 12:16:52;;;;;;;20.33;18.17;;;27.20;99.90;;;;;;5073877;28;20132;-81
2023/08/19 12:19:19;;;;;;;21.40;17.77;;;27.00;99.90;;;;;;5073791;28;20118;-81
2023/08/19 12:21:44;;;;;;;20.83;18.17;;;26.80;99.90;;;;;;5074058;28;20048;-80
2023/08/19 12:24:10;;;;;;;22.02;18.75;;;26.70;99.90;;;;;;5073410;28;20446;-80
2023/08/19 12:26:35;;;;;;;24.13;21.52;;;26.60;99.90;;;;;;5073174;28;20039;-80
2023/08/19 12:29:02;;;;;;;27.88;24.67;;;26.50;99.90;;;;;;5073073;28;20032;-81
2023/08/19 12:31:27;;;;;;;34.00;27.05;;;26.30;99.90;;;;;;5073104;28;20036;-81
2023/08/19 12:33:53;;;;;;;35.65;26.98;;;26.20;99.90;;;;;;5073637;28;20530;-81